EFW52R EGKK-LPMA
Flight info
| Callsign | EFW52R |
|---|---|
| Flight time | N/A |
| Altitude | 33000 |
| Route | IMVUR N63 SAM M195 LORKU DCT POZOF/N0448F350 DCT LOTEE DCT PINEK DCT VERAM DCT TELMU DCT PECKY DCT LIDRO |
| Aircraft | A321/M-SDE3FGHIRWY/LB1 |
Departure
| Time | 2026-05-06 15:02 |
|---|---|
| Airport | London Gatwick Airport (EGKK) |
Arrival
| Time | N/A |
|---|---|
| Airport | Cristiano Ronaldo International Airport (LPMA) |
| Time | Latitude | Longitude | Altitude | Speed | Heading |
|---|---|---|---|---|---|
| 2026-05-06 13:59 | 51.15484 | -0.16962 | 204 ft | 0 kts | 348° |
| 2026-05-06 14:46 | 51.15482 | -0.16962 | 204 ft | 2 kts | 348° |
| 2026-05-06 14:47 | 51.15458 | -0.16954 | 206 ft | 3 kts | 348° |
| 2026-05-06 14:47 | 51.15439 | -0.16945 | 216 ft | 4 kts | 307° |
| 2026-05-06 14:47 | 51.15436 | -0.16913 | 211 ft | 4 kts | 257° |
| 2026-05-06 14:47 | 51.15440 | -0.16885 | 213 ft | 0 kts | 257° |
| 2026-05-06 14:50 | 51.15439 | -0.16892 | 214 ft | 1 kts | 257° |
| 2026-05-06 14:51 | 51.15436 | -0.16913 | 211 ft | 2 kts | 257° |
| 2026-05-06 14:51 | 51.15432 | -0.16945 | 213 ft | 4 kts | 257° |
| 2026-05-06 14:51 | 51.15426 | -0.16989 | 206 ft | 5 kts | 257° |
| 2026-05-06 14:51 | 51.15418 | -0.17045 | 204 ft | 6 kts | 257° |
| 2026-05-06 14:52 | 51.15409 | -0.17110 | 204 ft | 7 kts | 257° |
| 2026-05-06 14:52 | 51.15389 | -0.17179 | 206 ft | 7 kts | 247° |
| 2026-05-06 14:52 | 51.15372 | -0.17267 | 213 ft | 10 kts | 251° |
| 2026-05-06 14:52 | 51.15338 | -0.17358 | 215 ft | 10 kts | 207° |
| 2026-05-06 14:53 | 51.15298 | -0.17447 | 207 ft | 12 kts | 259° |
| 2026-05-06 14:53 | 51.15274 | -0.17644 | 210 ft | 21 kts | 257° |
| 2026-05-06 14:53 | 51.15241 | -0.17876 | 209 ft | 22 kts | 257° |
| 2026-05-06 14:53 | 51.15207 | -0.18123 | 204 ft | 23 kts | 257° |
| 2026-05-06 14:54 | 51.15182 | -0.18348 | 208 ft | 19 kts | 259° |
| 2026-05-06 14:54 | 51.15153 | -0.18565 | 209 ft | 21 kts | 257° |
| 2026-05-06 14:54 | 51.15121 | -0.18796 | 205 ft | 22 kts | 258° |
| 2026-05-06 14:54 | 51.15087 | -0.19038 | 213 ft | 23 kts | 257° |
| 2026-05-06 14:55 | 51.15053 | -0.19290 | 208 ft | 24 kts | 258° |
| 2026-05-06 14:55 | 51.15017 | -0.19552 | 210 ft | 25 kts | 257° |
| 2026-05-06 14:55 | 51.14980 | -0.19825 | 209 ft | 26 kts | 257° |
| 2026-05-06 14:55 | 51.14940 | -0.20110 | 214 ft | 27 kts | 257° |
| 2026-05-06 14:56 | 51.14899 | -0.20402 | 203 ft | 25 kts | 257° |
| 2026-05-06 14:56 | 51.14876 | -0.20579 | 207 ft | 10 kts | 257° |
| 2026-05-06 14:56 | 51.14819 | -0.20659 | 205 ft | 12 kts | 208° |
| 2026-05-06 14:56 | 51.14759 | -0.20757 | 205 ft | 13 kts | 256° |
| 2026-05-06 14:57 | 51.14738 | -0.20906 | 213 ft | 14 kts | 258° |
| 2026-05-06 14:57 | 51.14716 | -0.21067 | 205 ft | 16 kts | 257° |
| 2026-05-06 14:57 | 51.14699 | -0.21193 | 204 ft | 0 kts | 258° |
| 2026-05-06 15:00 | 51.14698 | -0.21198 | 204 ft | 3 kts | 258° |
| 2026-05-06 15:00 | 51.14687 | -0.21280 | 207 ft | 10 kts | 257° |
| 2026-05-06 15:00 | 51.14635 | -0.21333 | 204 ft | 10 kts | 175° |
| 2026-05-06 15:00 | 51.14557 | -0.21293 | 219 ft | 16 kts | 147° |
| 2026-05-06 15:01 | 51.14527 | -0.21120 | 208 ft | 20 kts | 77° |
| 2026-05-06 15:01 | 51.14603 | -0.20571 | 208 ft | 92 kts | 77° |
| 2026-05-06 15:01 | 51.14789 | -0.19204 | 209 ft | 161 kts | 78° |
| 2026-05-06 15:01 | 51.15059 | -0.17252 | 704 ft | 182 kts | 74° |
| 2026-05-06 15:02 | 51.15339 | -0.15300 | 1850 ft | 184 kts | 74° |
| 2026-05-06 15:02 | 51.15625 | -0.13238 | 2404 ft | 195 kts | 74° |
| 2026-05-06 15:02 | 51.15932 | -0.11011 | 2619 ft | 217 kts | 75° |
| 2026-05-06 15:02 | 51.16260 | -0.08625 | 2976 ft | 228 kts | 74° |
| 2026-05-06 15:03 | 51.16879 | -0.06371 | 3033 ft | 220 kts | 44° |
| 2026-05-06 15:03 | 51.18146 | -0.05146 | 3031 ft | 215 kts | 9° |
| 2026-05-06 15:03 | 51.19627 | -0.05282 | 3040 ft | 216 kts | 348° |
| 2026-05-06 15:03 | 51.21088 | -0.05861 | 3033 ft | 216 kts | 338° |
| 2026-05-06 15:04 | 51.22265 | -0.07314 | 3032 ft | 219 kts | 306° |
| 2026-05-06 15:04 | 51.22754 | -0.09724 | 3041 ft | 247 kts | 271° |
| 2026-05-06 15:04 | 51.22521 | -0.12524 | 3037 ft | 259 kts | 263° |
| 2026-05-06 15:04 | 51.22191 | -0.15375 | 3196 ft | 264 kts | 261° |
| 2026-05-06 15:05 | 51.21844 | -0.18256 | 3965 ft | 265 kts | 261° |
| 2026-05-06 15:05 | 51.21493 | -0.21148 | 4753 ft | 266 kts | 262° |
| 2026-05-06 15:05 | 51.21144 | -0.24059 | 5497 ft | 268 kts | 262° |
| 2026-05-06 15:05 | 51.20797 | -0.26975 | 6281 ft | 268 kts | 262° |
| 2026-05-06 15:06 | 51.20451 | -0.29905 | 7006 ft | 269 kts | 262° |
| 2026-05-06 15:06 | 51.20105 | -0.32856 | 7666 ft | 272 kts | 262° |
| 2026-05-06 15:06 | 51.19752 | -0.35837 | 8331 ft | 276 kts | 262° |
| 2026-05-06 15:06 | 51.19370 | -0.38855 | 8981 ft | 279 kts | 261° |
| 2026-05-06 15:07 | 51.18970 | -0.41901 | 9631 ft | 283 kts | 261° |
| 2026-05-06 15:07 | 51.18560 | -0.44984 | 10237 ft | 286 kts | 260° |
| 2026-05-06 15:07 | 51.18149 | -0.48093 | 10851 ft | 288 kts | 261° |
| 2026-05-06 15:07 | 51.17739 | -0.51217 | 11506 ft | 289 kts | 261° |
| 2026-05-06 15:08 | 51.17200 | -0.54330 | 12025 ft | 298 kts | 251° |
| 2026-05-06 15:08 | 51.16385 | -0.57485 | 12161 ft | 318 kts | 249° |
| 2026-05-06 15:08 | 51.15501 | -0.60807 | 12286 ft | 335 kts | 249° |
| 2026-05-06 15:08 | 51.14559 | -0.64304 | 12422 ft | 352 kts | 249° |
| 2026-05-06 15:09 | 51.13569 | -0.67963 | 12559 ft | 367 kts | 248° |
| 2026-05-06 15:09 | 51.12544 | -0.71765 | 12820 ft | 377 kts | 249° |
| 2026-05-06 15:09 | 51.11508 | -0.75620 | 13297 ft | 381 kts | 249° |
| 2026-05-06 15:09 | 51.10460 | -0.79516 | 13836 ft | 383 kts | 249° |
| 2026-05-06 15:10 | 51.09410 | -0.83420 | 14321 ft | 385 kts | 249° |
| 2026-05-06 15:10 | 51.08353 | -0.87348 | 14766 ft | 388 kts | 248° |
| 2026-05-06 15:10 | 51.07285 | -0.91302 | 15221 ft | 390 kts | 248° |
| 2026-05-06 15:10 | 51.06208 | -0.95280 | 15702 ft | 392 kts | 248° |
| 2026-05-06 15:11 | 51.05133 | -0.99259 | 16150 ft | 394 kts | 248° |
| 2026-05-06 15:11 | 51.04044 | -1.03286 | 16562 ft | 397 kts | 248° |
| 2026-05-06 15:11 | 51.02951 | -1.07322 | 17026 ft | 399 kts | 248° |
| 2026-05-06 15:11 | 51.01852 | -1.11365 | 17483 ft | 400 kts | 248° |
| 2026-05-06 15:12 | 51.00743 | -1.15440 | 17892 ft | 403 kts | 248° |
| 2026-05-06 15:12 | 50.99625 | -1.19536 | 18305 ft | 405 kts | 248° |
| 2026-05-06 15:12 | 50.98501 | -1.23643 | 18714 ft | 406 kts | 247° |
| 2026-05-06 15:12 | 50.97384 | -1.27713 | 19070 ft | 409 kts | 246° |
| 2026-05-06 15:13 | 50.96008 | -1.31674 | 19405 ft | 413 kts | 237° |
| 2026-05-06 15:13 | 50.94186 | -1.35212 | 19782 ft | 416 kts | 227° |
| 2026-05-06 15:13 | 50.91980 | -1.38205 | 20167 ft | 420 kts | 217° |
| 2026-05-06 15:13 | 50.89532 | -1.40761 | 20523 ft | 422 kts | 214° |
| 2026-05-06 15:14 | 50.87069 | -1.43310 | 20888 ft | 424 kts | 214° |
| 2026-05-06 15:14 | 50.84595 | -1.45878 | 21245 ft | 426 kts | 214° |
| 2026-05-06 15:14 | 50.82109 | -1.48462 | 21599 ft | 428 kts | 214° |
| 2026-05-06 15:14 | 50.79611 | -1.51056 | 21940 ft | 430 kts | 214° |
| 2026-05-06 15:15 | 50.77098 | -1.53657 | 22296 ft | 432 kts | 214° |
| 2026-05-06 15:15 | 50.74577 | -1.56262 | 22644 ft | 434 kts | 214° |
| 2026-05-06 15:15 | 50.72901 | -1.57993 | 22874 ft | 436 kts | 214° |
| 2026-05-06 15:15 | 50.70358 | -1.60620 | 23220 ft | 438 kts | 214° |
| 2026-05-06 15:16 | 50.67808 | -1.63253 | 23553 ft | 440 kts | 214° |
| 2026-05-06 15:16 | 50.65240 | -1.65897 | 23845 ft | 442 kts | 214° |
| 2026-05-06 15:16 | 50.62660 | -1.68548 | 24115 ft | 444 kts | 214° |
| 2026-05-06 15:16 | 50.60072 | -1.71206 | 24381 ft | 446 kts | 214° |
| 2026-05-06 15:17 | 50.57466 | -1.73877 | 24669 ft | 447 kts | 214° |
| 2026-05-06 15:17 | 50.54854 | -1.76547 | 24932 ft | 449 kts | 214° |
| 2026-05-06 15:17 | 50.52225 | -1.79234 | 25195 ft | 451 kts | 214° |
| 2026-05-06 15:17 | 50.49594 | -1.81924 | 25451 ft | 453 kts | 214° |
| 2026-05-06 15:18 | 50.46947 | -1.84626 | 25708 ft | 454 kts | 214° |
| 2026-05-06 15:18 | 50.44291 | -1.87328 | 25915 ft | 456 kts | 214° |
| 2026-05-06 15:18 | 50.41626 | -1.90036 | 26151 ft | 457 kts | 214° |
| 2026-05-06 15:18 | 50.38952 | -1.92756 | 26353 ft | 459 kts | 214° |
| 2026-05-06 15:19 | 50.36265 | -1.95482 | 26552 ft | 461 kts | 214° |
| 2026-05-06 15:19 | 50.33575 | -1.98206 | 26822 ft | 460 kts | 214° |
| 2026-05-06 15:19 | 50.30887 | -2.00925 | 27120 ft | 460 kts | 214° |
| 2026-05-06 15:19 | 50.28202 | -2.03635 | 27407 ft | 459 kts | 214° |
| 2026-05-06 15:20 | 50.25520 | -2.06336 | 27697 ft | 458 kts | 214° |
| 2026-05-06 15:20 | 50.22835 | -2.09027 | 27989 ft | 458 kts | 213° |
| 2026-05-06 15:20 | 50.20143 | -2.11678 | 28286 ft | 458 kts | 213° |
| 2026-05-06 15:20 | 50.17442 | -2.14303 | 28558 ft | 457 kts | 213° |
| 2026-05-06 15:21 | 50.14739 | -2.16910 | 28839 ft | 457 kts | 213° |
| 2026-05-06 15:21 | 50.12036 | -2.19513 | 29122 ft | 457 kts | 213° |
| 2026-05-06 15:21 | 50.09336 | -2.22114 | 29422 ft | 456 kts | 213° |
| 2026-05-06 15:21 | 50.06639 | -2.24717 | 29720 ft | 456 kts | 213° |
| 2026-05-06 15:22 | 50.03948 | -2.27320 | 30004 ft | 455 kts | 213° |
| 2026-05-06 15:22 | 50.01261 | -2.29918 | 30246 ft | 455 kts | 213° |
| 2026-05-06 15:22 | 49.98577 | -2.32512 | 30486 ft | 454 kts | 213° |
| 2026-05-06 15:22 | 49.95932 | -2.35067 | 30721 ft | 453 kts | 213° |
| 2026-05-06 15:23 | 49.93207 | -2.37521 | 30948 ft | 454 kts | 207° |
| 2026-05-06 15:23 | 49.90333 | -2.39562 | 31154 ft | 454 kts | 206° |
| 2026-05-06 15:23 | 49.87451 | -2.41570 | 31380 ft | 454 kts | 205° |
| 2026-05-06 15:23 | 49.84570 | -2.43576 | 31610 ft | 453 kts | 206° |
| 2026-05-06 15:24 | 49.81696 | -2.45582 | 31846 ft | 453 kts | 206° |
| 2026-05-06 15:24 | 49.78827 | -2.47585 | 32107 ft | 452 kts | 206° |
| 2026-05-06 15:24 | 49.75958 | -2.49586 | 32354 ft | 452 kts | 205° |
| 2026-05-06 15:24 | 49.73098 | -2.51580 | 32573 ft | 451 kts | 205° |
| 2026-05-06 15:25 | 49.70239 | -2.53570 | 32781 ft | 451 kts | 206° |
| 2026-05-06 15:25 | 49.67374 | -2.55557 | 32960 ft | 451 kts | 205° |
| 2026-05-06 15:25 | 49.64505 | -2.57538 | 33003 ft | 452 kts | 205° |
| 2026-05-06 15:26 | 49.58771 | -2.61484 | 33002 ft | 451 kts | 205° |
| 2026-05-06 15:26 | 49.53040 | -2.65437 | 33002 ft | 451 kts | 205° |
| 2026-05-06 15:27 | 49.47306 | -2.69386 | 32999 ft | 451 kts | 205° |
| 2026-05-06 15:27 | 49.41575 | -2.73324 | 33003 ft | 451 kts | 205° |
| 2026-05-06 15:28 | 49.35837 | -2.77249 | 33001 ft | 451 kts | 205° |
| 2026-05-06 15:28 | 49.30095 | -2.81163 | 32999 ft | 452 kts | 205° |
| 2026-05-06 15:29 | 49.24353 | -2.85068 | 32990 ft | 452 kts | 205° |
| 2026-05-06 15:29 | 49.18598 | -2.88979 | 32993 ft | 452 kts | 205° |
| 2026-05-06 15:30 | 49.12843 | -2.92871 | 32993 ft | 452 kts | 205° |
| 2026-05-06 15:30 | 49.07086 | -2.96758 | 32994 ft | 453 kts | 205° |
| 2026-05-06 15:31 | 49.01326 | -3.00636 | 32989 ft | 453 kts | 205° |
| 2026-05-06 15:31 | 48.95560 | -3.04504 | 32989 ft | 453 kts | 205° |
| 2026-05-06 15:32 | 48.86908 | -3.10301 | 32993 ft | 453 kts | 205° |
| 2026-05-06 15:32 | 48.81141 | -3.14158 | 32995 ft | 453 kts | 205° |
| 2026-05-06 15:33 | 48.75412 | -3.17971 | 32997 ft | 453 kts | 205° |
| 2026-05-06 15:33 | 48.69643 | -3.21800 | 32998 ft | 453 kts | 205° |
| 2026-05-06 15:34 | 48.63872 | -3.25619 | 32996 ft | 453 kts | 205° |
| 2026-05-06 15:34 | 48.58097 | -3.29441 | 32995 ft | 453 kts | 205° |
| 2026-05-06 15:35 | 48.52328 | -3.33256 | 32993 ft | 453 kts | 205° |
| 2026-05-06 15:35 | 48.46554 | -3.37055 | 32983 ft | 453 kts | 205° |
| 2026-05-06 15:36 | 48.40775 | -3.40832 | 32980 ft | 453 kts | 205° |
| 2026-05-06 15:36 | 48.34995 | -3.44613 | 32973 ft | 453 kts | 205° |
| 2026-05-06 15:37 | 48.29218 | -3.48398 | 32980 ft | 453 kts | 205° |
| 2026-05-06 15:37 | 48.23434 | -3.52166 | 32975 ft | 453 kts | 205° |
| 2026-05-06 15:38 | 48.17648 | -3.55917 | 32979 ft | 453 kts | 205° |
| 2026-05-06 15:38 | 48.11866 | -3.59662 | 32975 ft | 453 kts | 205° |
| 2026-05-06 15:39 | 48.06074 | -3.63409 | 32976 ft | 453 kts | 205° |
| 2026-05-06 15:39 | 48.00288 | -3.67144 | 32973 ft | 453 kts | 205° |
| 2026-05-06 15:40 | 47.94497 | -3.70869 | 32965 ft | 453 kts | 205° |
| 2026-05-06 15:40 | 47.88705 | -3.74586 | 32970 ft | 453 kts | 205° |
| 2026-05-06 15:41 | 47.82915 | -3.78286 | 32971 ft | 453 kts | 205° |
| 2026-05-06 15:41 | 47.77125 | -3.81985 | 32969 ft | 453 kts | 205° |
| 2026-05-06 15:42 | 47.71337 | -3.85670 | 32972 ft | 453 kts | 205° |
| 2026-05-06 15:42 | 47.65546 | -3.89357 | 32978 ft | 453 kts | 205° |
| 2026-05-06 15:43 | 47.59755 | -3.93035 | 32980 ft | 453 kts | 204° |
| 2026-05-06 15:43 | 47.54001 | -3.96670 | 32984 ft | 453 kts | 205° |
| 2026-05-06 15:44 | 47.48203 | -4.00321 | 32990 ft | 453 kts | 204° |
| 2026-05-06 15:44 | 47.42404 | -4.03972 | 32989 ft | 453 kts | 205° |
| 2026-05-06 15:45 | 47.36599 | -4.07618 | 32990 ft | 453 kts | 205° |
| 2026-05-06 15:45 | 47.30794 | -4.11255 | 32997 ft | 453 kts | 205° |
| 2026-05-06 15:46 | 47.24986 | -4.14891 | 32994 ft | 454 kts | 205° |
| 2026-05-06 15:46 | 47.19181 | -4.18504 | 32997 ft | 453 kts | 205° |
| 2026-05-06 15:47 | 47.13376 | -4.22109 | 32998 ft | 453 kts | 205° |
| 2026-05-06 15:47 | 47.07570 | -4.25712 | 33009 ft | 453 kts | 204° |
| 2026-05-06 15:48 | 47.01801 | -4.29419 | 33004 ft | 453 kts | 206° |
| 2026-05-06 15:48 | 46.96110 | -4.33371 | 33015 ft | 452 kts | 207° |
| 2026-05-06 15:49 | 46.90430 | -4.37345 | 32997 ft | 452 kts | 207° |
| 2026-05-06 15:49 | 46.84728 | -4.41247 | 33009 ft | 453 kts | 206° |
| 2026-05-06 15:50 | 46.79013 | -4.45115 | 32999 ft | 453 kts | 207° |
| 2026-05-06 15:50 | 46.73300 | -4.48971 | 33013 ft | 453 kts | 206° |
| 2026-05-06 15:51 | 46.67587 | -4.52830 | 33014 ft | 453 kts | 206° |
| 2026-05-06 15:51 | 46.61868 | -4.56677 | 33007 ft | 453 kts | 206° |
| 2026-05-06 15:52 | 46.56153 | -4.60524 | 33008 ft | 452 kts | 206° |
| 2026-05-06 15:52 | 46.50439 | -4.64365 | 33015 ft | 452 kts | 206° |
| 2026-05-06 15:53 | 46.44722 | -4.68190 | 33013 ft | 452 kts | 206° |
| 2026-05-06 15:53 | 46.39011 | -4.72015 | 33008 ft | 452 kts | 206° |
| 2026-05-06 15:54 | 46.33339 | -4.75811 | 33015 ft | 452 kts | 206° |
| 2026-05-06 15:54 | 46.27586 | -4.79637 | 33007 ft | 452 kts | 206° |
| 2026-05-06 15:55 | 46.21911 | -4.83394 | 33019 ft | 451 kts | 206° |
| 2026-05-06 15:55 | 46.16202 | -4.87172 | 33027 ft | 451 kts | 206° |
| 2026-05-06 15:56 | 46.10495 | -4.90939 | 33023 ft | 451 kts | 206° |
| 2026-05-06 15:56 | 46.04788 | -4.94699 | 33019 ft | 451 kts | 206° |
| 2026-05-06 15:57 | 45.99079 | -4.98448 | 33023 ft | 451 kts | 206° |
| 2026-05-06 15:57 | 45.93369 | -5.02188 | 33025 ft | 451 kts | 206° |
| 2026-05-06 15:58 | 45.87662 | -5.05931 | 33028 ft | 451 kts | 206° |
| 2026-05-06 15:58 | 45.81954 | -5.09658 | 33030 ft | 450 kts | 206° |
| 2026-05-06 15:59 | 45.76260 | -5.13370 | 33029 ft | 449 kts | 206° |
| 2026-05-06 15:59 | 45.70564 | -5.17070 | 33029 ft | 449 kts | 206° |
| 2026-05-06 16:00 | 45.64868 | -5.20765 | 33031 ft | 449 kts | 206° |
| 2026-05-06 16:00 | 45.59176 | -5.24448 | 33033 ft | 449 kts | 206° |
| 2026-05-06 16:01 | 45.53487 | -5.28113 | 33026 ft | 449 kts | 206° |
| 2026-05-06 16:01 | 45.47799 | -5.31777 | 33026 ft | 448 kts | 206° |
| 2026-05-06 16:02 | 45.42114 | -5.35430 | 33029 ft | 448 kts | 206° |
| 2026-05-06 16:02 | 45.37388 | -5.38464 | 33025 ft | 448 kts | 206° |
| 2026-05-06 16:03 | 45.31707 | -5.42100 | 33025 ft | 448 kts | 206° |
| 2026-05-06 16:03 | 45.26035 | -5.45733 | 33027 ft | 447 kts | 206° |
| 2026-05-06 16:04 | 45.20367 | -5.49351 | 33027 ft | 446 kts | 205° |
| 2026-05-06 16:04 | 45.14701 | -5.52942 | 33027 ft | 446 kts | 205° |
| 2026-05-06 16:05 | 45.09042 | -5.56530 | 33027 ft | 446 kts | 205° |
| 2026-05-06 16:05 | 45.03376 | -5.60118 | 33026 ft | 446 kts | 206° |
| 2026-05-06 16:06 | 44.97757 | -5.63680 | 33027 ft | 446 kts | 205° |
| 2026-05-06 16:06 | 44.92096 | -5.67248 | 33027 ft | 445 kts | 205° |
| 2026-05-06 16:07 | 44.86431 | -5.70803 | 33027 ft | 445 kts | 205° |
| 2026-05-06 16:07 | 44.80769 | -5.74352 | 33027 ft | 445 kts | 205° |
| 2026-05-06 16:08 | 44.75111 | -5.77898 | 33027 ft | 445 kts | 205° |
| 2026-05-06 16:08 | 44.69453 | -5.81438 | 33027 ft | 445 kts | 205° |
| 2026-05-06 16:09 | 44.64043 | -5.85578 | 33027 ft | 443 kts | 218° |
| 2026-05-06 16:09 | 44.59099 | -5.90741 | 33024 ft | 443 kts | 218° |
| 2026-05-06 16:10 | 44.54148 | -5.95882 | 33027 ft | 443 kts | 218° |
| 2026-05-06 16:10 | 44.49196 | -6.01011 | 33027 ft | 443 kts | 218° |
| 2026-05-06 16:11 | 44.44236 | -6.06128 | 33022 ft | 443 kts | 218° |
| 2026-05-06 16:11 | 44.39279 | -6.11239 | 33021 ft | 443 kts | 218° |
| 2026-05-06 16:12 | 44.34326 | -6.16357 | 33025 ft | 443 kts | 218° |
| 2026-05-06 16:12 | 44.29366 | -6.21460 | 33025 ft | 443 kts | 218° |
| 2026-05-06 16:13 | 44.24396 | -6.26538 | 33019 ft | 443 kts | 218° |
| 2026-05-06 16:13 | 44.19428 | -6.31612 | 33024 ft | 442 kts | 218° |
| 2026-05-06 16:14 | 44.14469 | -6.36686 | 33023 ft | 442 kts | 218° |
| 2026-05-06 16:14 | 44.09502 | -6.41749 | 33025 ft | 442 kts | 218° |
| 2026-05-06 16:15 | 44.04530 | -6.46796 | 33022 ft | 442 kts | 217° |
| 2026-05-06 16:15 | 43.99602 | -6.51789 | 33022 ft | 441 kts | 217° |
| 2026-05-06 16:16 | 43.94653 | -6.56799 | 33021 ft | 440 kts | 217° |
| 2026-05-06 16:16 | 43.89701 | -6.61805 | 33022 ft | 440 kts | 217° |
| 2026-05-06 16:17 | 43.84746 | -6.66792 | 33028 ft | 440 kts | 217° |
| 2026-05-06 16:17 | 43.79790 | -6.71776 | 33018 ft | 440 kts | 217° |
| 2026-05-06 16:18 | 43.74845 | -6.76753 | 33016 ft | 440 kts | 217° |
| 2026-05-06 16:18 | 43.69890 | -6.81714 | 33029 ft | 440 kts | 217° |
| 2026-05-06 16:19 | 43.64934 | -6.86663 | 33020 ft | 439 kts | 217° |
| 2026-05-06 16:19 | 43.59986 | -6.91598 | 33024 ft | 438 kts | 217° |
| 2026-05-06 16:20 | 43.55043 | -6.96522 | 33028 ft | 438 kts | 217° |
| 2026-05-06 16:20 | 43.50105 | -7.01434 | 33021 ft | 438 kts | 217° |
| 2026-05-06 16:21 | 43.45156 | -7.06335 | 33026 ft | 438 kts | 217° |
| 2026-05-06 16:21 | 43.40207 | -7.11224 | 33016 ft | 438 kts | 217° |
| 2026-05-06 16:22 | 43.35272 | -7.16102 | 33018 ft | 437 kts | 217° |
| 2026-05-06 16:22 | 43.30364 | -7.20935 | 33016 ft | 437 kts | 217° |
| 2026-05-06 16:23 | 43.25426 | -7.25783 | 33020 ft | 436 kts | 216° |
| 2026-05-06 16:23 | 43.20492 | -7.30625 | 33017 ft | 436 kts | 216° |
| 2026-05-06 16:24 | 43.15565 | -7.35457 | 33008 ft | 435 kts | 216° |
| 2026-05-06 16:24 | 43.10635 | -7.40270 | 33002 ft | 435 kts | 216° |
| 2026-05-06 16:25 | 43.05708 | -7.45072 | 33003 ft | 435 kts | 216° |
| 2026-05-06 16:25 | 43.00783 | -7.49877 | 33005 ft | 435 kts | 216° |
| 2026-05-06 16:26 | 42.95856 | -7.54667 | 32998 ft | 434 kts | 216° |
| 2026-05-06 16:26 | 42.90927 | -7.59439 | 32990 ft | 434 kts | 216° |
| 2026-05-06 16:27 | 42.86006 | -7.64201 | 32996 ft | 434 kts | 216° |
| 2026-05-06 16:27 | 42.81084 | -7.68951 | 32987 ft | 434 kts | 216° |
| 2026-05-06 16:28 | 42.76156 | -7.73699 | 32986 ft | 434 kts | 216° |
| 2026-05-06 16:28 | 42.71242 | -7.78423 | 32981 ft | 432 kts | 216° |
| 2026-05-06 16:29 | 42.66339 | -7.83130 | 32984 ft | 431 kts | 216° |
| 2026-05-06 16:29 | 42.61433 | -7.87828 | 32985 ft | 431 kts | 216° |
| 2026-05-06 16:30 | 42.57353 | -7.91725 | 32985 ft | 431 kts | 216° |